Aérodrome d'Arcachon-La Teste-de-Buch

METAR LFCH

罗盘
风向 的 Aérodrome d'Arcachon-La Teste-de-Buch 7L/25R
风: 1 kt, 1 beaufort


1 kt
改变
0 1.000 2.000 3.000 4.000 5.000
CAVOK
METAR LFBD 161030Z AUTO VRB01KT CAVOK 24/16 Q1008 TEMPO 4000 SHRA BKN040TCU

METAR Aérodrome d'Arcachon-La Teste-de-Buch - LFCH

Aérodrome d'Arcachon-La Teste-de-Buch是Arcachon/La Teste-de-Buch,法国中的中型机场。 该机场有2条跑道: 7L/25R 和 7R/25L. 该领域的国际民航组织标志是LFCH.

这份报告是针对2022年8月16日 12:30, 当地时间在Bordeaux-Mérignac Airport进行的。

机场观察

可变方向的风很小或没有风。

天气为CAVOK。这意味着在5.000 ft或MSA(最低安全高度)以下(以较高者为准)以下没有云。这也意味着没有观测到积雨云或高耸的积云,可见度为10 km 或者更多或更高。此外,不会有雾,降雨或其他重要天气。

温度和风寒是24 °C。 露点为16 °C,相对湿度为61%。 海平面上的气压为1008 hPa (QNH)。

发展趋势

  • 暂时的

    可变方向的风很小或没有。 可见性变为4 km。 重大天气:阵雨 雨。 碎云 高耸的积云在4.000 ft的高度.

白天

今天,太阳从07:08升起,在21:09降落。 这适用于Aérodrome d'Arcachon-La Teste-de-Buch,世界夏令时可能有所不同。 当地时间与世界标准时间之间的时差为+2 小时。 夏令时目前正在进行中。

公司介绍

在这个机场,你可以找到飞行学校, 飞行俱乐部 和 跳伞中心。 这个机场上的公司有Ulm Sud Bassin, Aéroclub du Bassin d'Arcachon, Aéroclub François Hussenot, Aéroclub SEPAVIA 和 EPSBA。

体会

到Vliegles.nl去找飞行课程,跳伞和其他飞行体验。 浏览页面,了解Aérodrome d'Arcachon-La Teste-de-Buch附近所有可用的活动。 你也可以使用搜索功能来寻找你所在地附近的特定飞行课程、跳伞或其他飞行体验。

跑道

Id 标题 侧风 逆风 侧风 %
7L/25R 074°-254° 96 %
7R/25L 074°-254° 96 %

逆风成分最大的方向会被突出显示,并用于横风计算。 这并不一定意味着这个方向在使用。

温度 & 天气

温度 24 °C
露点 16 °C
相对湿度 61%
Kp-index 1  

白天

日出
07:06
中午
14:07
日落
21:08 (8h 23m)

小工具

你想在你的网站上有一个关于Aérodrome d'Arcachon-La Teste-de-Buch的当前航空天气(METAR)的小部件吗?

</> 显示HTML代码

我们和第三方通过cookies跟踪您在我们网站上的上网行为。如果您继续,我们认为您同意我们的cookie政策。 了解更多